Time;durP1;ratioP1;P1;durP2;ratioP2;P2;SDS_P1;SDS_P2;PMS_P1;PMS_P2;Temp;Humidity;BMP_temperature;BMP_pressure;BME280_temperature;BME280_humidity;BME280_pressure;Samples;Min_cycle;Max_cycle;Signal;HPM_P1;HPM_P2
2023/07/01 00:01:13;;;;;;;5.80;2.35;;;;;;;;;;4921834;29;20596;-62
2023/07/01 00:03:38;;;;;;;7.25;2.42;;;;;;;;;;4919342;29;20059;-62
2023/07/01 00:06:04;;;;;;;5.68;2.55;;;;;;;;;;4922050;29;20024;-62
2023/07/01 00:08:29;;;;;;;6.68;2.60;;;;;;;;;;4916826;29;20027;-63
2023/07/01 00:10:58;;;;;;;5.63;2.58;;;;;;;;;;4919246;29;20032;-62
2023/07/01 00:13:24;;;;;;;5.68;2.70;;;;;;;;;;4916685;29;20027;-62
2023/07/01 00:15:49;;;;;;;6.65;2.72;;;;;;;;;;4919838;29;20027;-63
2023/07/01 00:18:14;;;;;;;6.95;3.03;;;;;;;;;;4915317;29;20382;-62
2023/07/01 00:20:40;;;;;;;10.15;3.03;;;;;;;;;;4931304;29;20047;-62
2023/07/01 00:23:05;;;;;;;5.18;2.85;;;;;;;;;;4938395;29;20044;-62
2023/07/01 00:25:30;;;;;;;8.23;3.13;;;;;;;;;;4938334;29;20031;-63
2023/07/01 00:27:55;;;;;;;5.88;3.08;;;;;;;;;;4935046;29;20064;-63
2023/07/01 00:30:21;;;;;;;7.10;2.97;;;;;;;;;;4937335;29;20042;-62
2023/07/01 00:32:46;;;;;;;6.75;3.28;;;;;;;;;;4936449;29;20030;-62
2023/07/01 00:35:11;;;;;;;9.38;3.50;;;;;;;;;;4936911;29;20476;-62
2023/07/01 00:37:37;;;;;;;7.53;3.40;;;;;;;;;;4953963;29;20106;-62
2023/07/01 00:40:03;;;;;;;6.30;3.10;;;;;;;;;;4941465;28;20075;-62
2023/07/01 00:42:29;;;;;;;7.05;3.30;;;;;;;;;;4937482;29;20030;-62
2023/07/01 00:44:54;;;;;;;7.93;3.90;;;;;;;;;;4938079;29;20023;-62
2023/07/01 00:47:19;;;;;;;7.53;3.95;;;;;;;;;;4938214;29;20023;-62
2023/07/01 00:49:45;;;;;;;7.88;3.65;;;;;;;;;;4936300;29;20362;-62
2023/07/01 00:52:10;;;;;;;6.80;3.50;;;;;;;;;;4937384;29;20110;-62
2023/07/01 00:54:36;;;;;;;7.10;3.88;;;;;;;;;;4937852;29;20400;-62
2023/07/01 00:57:03;;;;;;;9.25;3.75;;;;;;;;;;4937824;29;20169;-62
2023/07/01 00:59:29;;;;;;;8.48;4.18;;;;;;;;;;4937340;29;20019;-62
2023/07/01 01:01:55;;;;;;;10.20;4.70;;;;;;;;;;4934241;29;20023;-62
2023/07/01 01:04:31;;;;;;;6.63;3.97;;;;;;;;;;4932186;29;20035;-62
2023/07/01 01:07:10;;;;;;;7.68;3.88;;;;;;;;;;4939373;29;20392;-62
2023/07/01 01:09:38;;;;;;;8.15;3.75;;;;;;;;;;4920895;29;20046;-62
2023/07/01 01:12:06;;;;;;;10.10;4.05;;;;;;;;;;4956702;28;20019;-62
2023/07/01 01:14:33;;;;;;;6.60;3.78;;;;;;;;;;4937043;29;20492;-62
2023/07/01 01:17:02;;;;;;;8.48;3.88;;;;;;;;;;4937193;29;20427;-62
2023/07/01 01:19:35;;;;;;;10.00;3.97;;;;;;;;;;4944744;29;20019;-62
2023/07/01 01:22:21;;;;;;;9.85;4.18;;;;;;;;;;4946464;28;20020;-62
2023/07/01 01:24:51;;;;;;;10.50;4.13;;;;;;;;;;4936542;29;20047;-63
2023/07/01 01:27:18;;;;;;;6.47;3.65;;;;;;;;;;4935167;29;20436;-62
2023/07/01 01:29:44;;;;;;;8.43;4.03;;;;;;;;;;4937365;29;20083;-62
2023/07/01 01:32:09;;;;;;;7.45;3.92;;;;;;;;;;4937223;29;20528;-63
2023/07/01 01:34:35;;;;;;;7.28;3.63;;;;;;;;;;4943840;29;20475;-63
2023/07/01 01:37:01;;;;;;;7.45;3.95;;;;;;;;;;4947660;28;20024;-62
2023/07/01 01:39:29;;;;;;;6.82;3.78;;;;;;;;;;4937023;29;20027;-62
2023/07/01 01:42:01;;;;;;;7.10;3.63;;;;;;;;;;4937335;29;20011;-62
2023/07/01 01:44:35;;;;;;;7.63;3.90;;;;;;;;;;4937240;29;20495;-62
2023/07/01 01:47:02;;;;;;;8.40;4.15;;;;;;;;;;4935485;29;20027;-62
2023/07/01 01:49:28;;;;;;;8.70;3.88;;;;;;;;;;4937163;29;20511;-62
2023/07/01 01:51:54;;;;;;;8.23;3.58;;;;;;;;;;4936715;29;20020;-62
2023/07/01 01:54:20;;;;;;;8.15;3.83;;;;;;;;;;4936679;29;20038;-62
2023/07/01 01:56:45;;;;;;;8.52;4.10;;;;;;;;;;4936951;29;20023;-62
2023/07/01 01:59:11;;;;;;;7.20;3.90;;;;;;;;;;4943951;29;20027;-62
2023/07/01 02:01:36;;;;;;;7.22;4.07;;;;;;;;;;4953957;28;20365;-62
2023/07/01 02:04:02;;;;;;;7.85;4.38;;;;;;;;;;4938273;28;20058;-62
2023/07/01 02:06:27;;;;;;;8.45;4.10;;;;;;;;;;4936557;29;20106;-62
2023/07/01 02:08:52;;;;;;;8.40;4.30;;;;;;;;;;4935902;29;20107;-62
2023/07/01 02:11:17;;;;;;;7.32;4.55;;;;;;;;;;4951852;29;20435;-62
2023/07/01 02:13:43;;;;;;;9.00;4.63;;;;;;;;;;4955944;28;20035;-62
2023/07/01 02:16:08;;;;;;;9.85;4.20;;;;;;;;;;4955484;28;20155;-62
2023/07/01 02:18:33;;;;;;;8.13;4.50;;;;;;;;;;4941684;28;20030;-62
2023/07/01 02:20:59;;;;;;;8.32;4.43;;;;;;;;;;4936105;28;20027;-62
2023/07/01 02:23:24;;;;;;;9.20;4.32;;;;;;;;;;4935691;29;20079;-62
2023/07/01 02:25:49;;;;;;;10.50;4.95;;;;;;;;;;4936661;29;20428;-62
2023/07/01 02:28:14;;;;;;;7.28;4.32;;;;;;;;;;4941149;29;20050;-62
2023/07/01 02:30:40;;;;;;;9.35;4.53;;;;;;;;;;4938415;28;20036;-62
2023/07/01 02:33:05;;;;;;;7.97;4.60;;;;;;;;;;4936700;29;20449;-66
2023/07/01 02:35:30;;;;;;;7.28;4.47;;;;;;;;;;4936127;29;20028;-66
2023/07/01 02:37:55;;;;;;;8.57;5.05;;;;;;;;;;4935511;29;20031;-66
2023/07/01 02:40:21;;;;;;;7.05;4.53;;;;;;;;;;4935983;29;20091;-66
2023/07/01 02:42:46;;;;;;;7.00;4.45;;;;;;;;;;4936370;29;20034;-66
2023/07/01 02:45:11;;;;;;;7.95;4.72;;;;;;;;;;4936050;29;20012;-66
2023/07/01 02:47:37;;;;;;;8.10;5.00;;;;;;;;;;4935015;29;20039;-66
2023/07/01 02:50:04;;;;;;;8.50;4.97;;;;;;;;;;4936533;29;20035;-66
2023/07/01 02:52:29;;;;;;;8.70;5.10;;;;;;;;;;4934965;29;20051;-66
2023/07/01 02:54:55;;;;;;;8.75;4.53;;;;;;;;;;4936092;29;20424;-66
2023/07/01 02:57:20;;;;;;;8.27;4.18;;;;;;;;;;4936179;29;20102;-66
2023/07/01 02:59:47;;;;;;;8.63;4.63;;;;;;;;;;4943055;29;20036;-67
2023/07/01 03:02:12;;;;;;;9.90;4.55;;;;;;;;;;4935478;29;20060;-66
2023/07/01 03:04:38;;;;;;;6.20;4.38;;;;;;;;;;4935849;29;20127;-66
2023/07/01 03:07:04;;;;;;;11.43;4.93;;;;;;;;;;4936135;29;20050;-66
2023/07/01 03:09:29;;;;;;;8.52;4.47;;;;;;;;;;4934184;29;20079;-66
2023/07/01 03:11:54;;;;;;;10.57;4.50;;;;;;;;;;4935716;29;20111;-66
2023/07/01 03:14:20;;;;;;;10.05;4.93;;;;;;;;;;4936002;29;20424;-66
2023/07/01 03:16:46;;;;;;;8.68;4.38;;;;;;;;;;4935618;29;20019;-66
2023/07/01 03:19:11;;;;;;;9.73;4.50;;;;;;;;;;4934417;29;20071;-66
2023/07/01 03:21:36;;;;;;;13.15;4.60;;;;;;;;;;4935395;29;20020;-66
2023/07/01 03:24:02;;;;;;;7.78;4.40;;;;;;;;;;4934476;29;20047;-66
2023/07/01 03:26:27;;;;;;;10.13;4.43;;;;;;;;;;4935849;29;20094;-66
2023/07/01 03:28:53;;;;;;;10.80;4.13;;;;;;;;;;4944025;29;20490;-66
2023/07/01 03:31:19;;;;;;;8.82;4.03;;;;;;;;;;4935717;29;20028;-66
2023/07/01 03:33:44;;;;;;;9.15;4.35;;;;;;;;;;4939369;29;20020;-66
2023/07/01 03:36:10;;;;;;;8.95;4.15;;;;;;;;;;4938886;29;20028;-66
2023/07/01 03:38:36;;;;;;;8.90;4.15;;;;;;;;;;4939694;29;20023;-66
2023/07/01 03:41:01;;;;;;;7.07;4.25;;;;;;;;;;4942702;28;20079;-66
2023/07/01 03:43:28;;;;;;;8.43;4.05;;;;;;;;;;4939343;29;20472;-66
2023/07/01 03:45:53;;;;;;;8.65;4.45;;;;;;;;;;4938782;29;20026;-66
2023/07/01 03:48:19;;;;;;;9.93;4.35;;;;;;;;;;4938603;29;20028;-66
2023/07/01 03:50:44;;;;;;;10.75;4.30;;;;;;;;;;4956228;28;20030;-66
2023/07/01 03:53:09;;;;;;;7.60;4.40;;;;;;;;;;4958444;28;20532;-66
2023/07/01 03:55:35;;;;;;;14.77;4.78;;;;;;;;;;4939217;28;20472;-66
2023/07/01 03:58:00;;;;;;;7.82;4.07;;;;;;;;;;4939913;29;20020;-66
2023/07/01 04:00:25;;;;;;;11.50;4.63;;;;;;;;;;4948587;28;20023;-66
2023/07/01 04:02:51;;;;;;;11.07;4.50;;;;;;;;;;4938437;29;20102;-66
2023/07/01 04:05:17;;;;;;;12.18;4.70;;;;;;;;;;4940143;28;20063;-66
2023/07/01 04:07:44;;;;;;;10.77;4.82;;;;;;;;;;4939053;29;20031;-66
2023/07/01 04:10:10;;;;;;;8.65;4.50;;;;;;;;;;4938057;29;20024;-66
2023/07/01 04:12:36;;;;;;;8.75;4.32;;;;;;;;;;4938422;29;20369;-66
2023/07/01 04:15:02;;;;;;;9.63;4.40;;;;;;;;;;4938341;29;20031;-66
2023/07/01 04:17:28;;;;;;;11.70;4.60;;;;;;;;;;4939388;29;20023;-66
2023/07/01 04:19:53;;;;;;;8.15;4.15;;;;;;;;;;4937922;29;20464;-66
2023/07/01 04:22:19;;;;;;;7.28;4.15;;;;;;;;;;4938183;29;20372;-66
2023/07/01 04:24:44;;;;;;;8.00;3.70;;;;;;;;;;4944761;29;20019;-66
2023/07/01 04:27:09;;;;;;;8.45;3.70;;;;;;;;;;4944934;28;20019;-66
2023/07/01 04:29:35;;;;;;;6.65;3.88;;;;;;;;;;4938568;29;20032;-66
2023/07/01 04:32:00;;;;;;;8.27;3.70;;;;;;;;;;4939906;29;20405;-66
2023/07/01 04:34:26;;;;;;;7.57;3.90;;;;;;;;;;4937286;29;20040;-66
2023/07/01 04:36:51;;;;;;;10.68;3.90;;;;;;;;;;4936439;29;20035;-66
2023/07/01 04:39:16;;;;;;;8.48;3.40;;;;;;;;;;4936942;29;20106;-66
2023/07/01 04:41:41;;;;;;;7.78;3.70;;;;;;;;;;4937787;29;20465;-66
2023/07/01 04:44:07;;;;;;;6.55;3.17;;;;;;;;;;4936646;29;20024;-66
2023/07/01 04:46:32;;;;;;;10.55;3.40;;;;;;;;;;4938091;29;20042;-66
2023/07/01 04:48:59;;;;;;;9.38;3.50;;;;;;;;;;4937298;29;20030;-66
2023/07/01 04:51:24;;;;;;;6.25;3.30;;;;;;;;;;4937001;29;20182;-66
2023/07/01 04:53:49;;;;;;;9.65;3.53;;;;;;;;;;4937486;29;20051;-66
2023/07/01 04:56:15;;;;;;;9.40;3.50;;;;;;;;;;4936169;29;20122;-66
2023/07/01 04:58:40;;;;;;;7.35;3.50;;;;;;;;;;4938125;29;20023;-66
2023/07/01 05:01:05;;;;;;;6.25;3.28;;;;;;;;;;4937682;29;20028;-66
2023/07/01 05:03:31;;;;;;;7.28;3.38;;;;;;;;;;4936038;29;20055;-66
2023/07/01 05:05:56;;;;;;;6.57;3.20;;;;;;;;;;4937121;29;20028;-66
2023/07/01 05:08:21;;;;;;;6.45;3.20;;;;;;;;;;4931327;29;20055;-66
2023/07/01 05:10:46;;;;;;;5.90;3.25;;;;;;;;;;4933939;29;20028;-66
2023/07/01 05:13:12;;;;;;;4.85;3.28;;;;;;;;;;4947164;29;20057;-66
2023/07/01 05:15:37;;;;;;;7.45;3.10;;;;;;;;;;4947660;28;20054;-66
2023/07/01 05:18:03;;;;;;;5.15;3.03;;;;;;;;;;4936434;29;20091;-66
2023/07/01 05:20:28;;;;;;;6.45;3.08;;;;;;;;;;4937056;29;20031;-66
2023/07/01 05:22:53;;;;;;;7.00;3.20;;;;;;;;;;4937442;29;20023;-66
2023/07/01 05:25:19;;;;;;;6.82;2.80;;;;;;;;;;4945008;29;20024;-66
2023/07/01 05:27:44;;;;;;;6.10;3.20;;;;;;;;;;4936986;29;20035;-66
2023/07/01 05:30:09;;;;;;;7.25;3.15;;;;;;;;;;4937411;29;20103;-66
2023/07/01 05:32:35;;;;;;;6.63;3.15;;;;;;;;;;4937605;29;20107;-66
2023/07/01 05:35:01;;;;;;;8.20;3.30;;;;;;;;;;4938050;28;20028;-67
2023/07/01 05:37:26;;;;;;;6.35;2.72;;;;;;;;;;4934894;29;20032;-66
2023/07/01 05:39:51;;;;;;;5.22;2.80;;;;;;;;;;4932589;29;20043;-66
2023/07/01 05:42:16;;;;;;;8.32;3.10;;;;;;;;;;4929932;29;20070;-66
2023/07/01 05:44:42;;;;;;;7.95;2.78;;;;;;;;;;4934670;29;20074;-66
2023/07/01 05:47:07;;;;;;;5.78;2.90;;;;;;;;;;4928334;29;20166;-66
2023/07/01 05:49:32;;;;;;;6.22;2.50;;;;;;;;;;4935407;29;20477;-67
2023/07/01 05:51:58;;;;;;;5.60;3.00;;;;;;;;;;4935263;29;20039;-67
2023/07/01 05:54:23;;;;;;;6.85;2.58;;;;;;;;;;4934491;29;20042;-67
2023/07/01 05:56:48;;;;;;;5.93;3.08;;;;;;;;;;4934347;29;20167;-67
2023/07/01 05:59:13;;;;;;;7.28;2.90;;;;;;;;;;4936891;29;20027;-67
2023/07/01 06:01:39;;;;;;;8.55;3.13;;;;;;;;;;4936122;29;20023;-66
2023/07/01 06:04:04;;;;;;;9.25;2.60;;;;;;;;;;4934997;29;20075;-67
2023/07/01 06:06:29;;;;;;;6.32;2.60;;;;;;;;;;4936925;29;20094;-67
2023/07/01 06:08:55;;;;;;;7.00;2.75;;;;;;;;;;4937013;29;20437;-67
2023/07/01 06:11:20;;;;;;;7.45;2.42;;;;;;;;;;4937580;29;20090;-67
2023/07/01 06:13:46;;;;;;;5.68;2.38;;;;;;;;;;4935663;28;20039;-67
2023/07/01 06:16:12;;;;;;;4.72;2.30;;;;;;;;;;4933122;29;20517;-67
2023/07/01 06:18:37;;;;;;;10.15;2.13;;;;;;;;;;4935759;28;20110;-67
2023/07/01 06:21:06;;;;;;;7.93;2.40;;;;;;;;;;4935543;29;20087;-68
2023/07/01 06:23:31;;;;;;;6.03;2.03;;;;;;;;;;4940409;29;20024;-67
2023/07/01 06:25:57;;;;;;;4.88;2.40;;;;;;;;;;4933732;29;20396;-67
2023/07/01 06:28:22;;;;;;;9.63;2.60;;;;;;;;;;4930260;29;20051;-67
2023/07/01 06:30:47;;;;;;;7.00;3.00;;;;;;;;;;4932227;29;20110;-67
2023/07/01 06:33:13;;;;;;;5.47;2.58;;;;;;;;;;4936025;29;20030;-67
2023/07/01 06:35:41;;;;;;;5.97;2.50;;;;;;;;;;4934587;29;20031;-67
2023/07/01 06:38:07;;;;;;;7.15;2.40;;;;;;;;;;4933450;29;20031;-68
2023/07/01 06:40:32;;;;;;;6.65;3.03;;;;;;;;;;4933195;29;20031;-67
2023/07/01 06:42:57;;;;;;;6.63;2.17;;;;;;;;;;4933718;29;20028;-68
2023/07/01 06:45:23;;;;;;;6.25;2.55;;;;;;;;;;4933718;29;20055;-67
2023/07/01 06:47:48;;;;;;;4.80;2.50;;;;;;;;;;4934565;29;20387;-67
2023/07/01 06:50:13;;;;;;;6.30;2.70;;;;;;;;;;4933915;29;20122;-68
2023/07/01 06:52:39;;;;;;;4.47;2.33;;;;;;;;;;4934738;29;20024;-68
2023/07/01 06:55:04;;;;;;;6.38;2.88;;;;;;;;;;4932054;29;20620;-68
2023/07/01 06:57:30;;;;;;;6.03;2.97;;;;;;;;;;4933609;29;20540;-67
2023/07/01 06:59:55;;;;;;;7.82;2.92;;;;;;;;;;4952509;29;20051;-68
2023/07/01 07:02:20;;;;;;;4.93;2.63;;;;;;;;;;4933602;28;20118;-68
2023/07/01 07:04:46;;;;;;;7.97;2.90;;;;;;;;;;4932069;29;20497;-67
2023/07/01 07:07:11;;;;;;;12.48;3.45;;;;;;;;;;4947686;29;20039;-68
2023/07/01 07:09:36;;;;;;;5.80;2.80;;;;;;;;;;4959251;28;20499;-68
2023/07/01 07:12:02;;;;;;;7.65;3.00;;;;;;;;;;4933210;28;20036;-68
2023/07/01 07:14:27;;;;;;;9.52;3.25;;;;;;;;;;4939361;29;20103;-68
2023/07/01 07:16:52;;;;;;;7.53;3.03;;;;;;;;;;4939072;29;20027;-68
2023/07/01 07:19:18;;;;;;;5.07;2.60;;;;;;;;;;4939460;29;20023;-68
2023/07/01 07:21:43;;;;;;;6.25;2.95;;;;;;;;;;4937966;29;20062;-68
2023/07/01 07:24:08;;;;;;;11.30;2.90;;;;;;;;;;4937497;29;20106;-69
2023/07/01 07:26:34;;;;;;;6.70;3.15;;;;;;;;;;4939335;29;20067;-67
2023/07/01 07:28:59;;;;;;;7.72;2.75;;;;;;;;;;4939679;28;20039;-68
2023/07/01 07:31:24;;;;;;;5.53;2.75;;;;;;;;;;4936722;29;20507;-68
2023/07/01 07:33:50;;;;;;;7.97;2.72;;;;;;;;;;4938948;29;20054;-69
2023/07/01 07:36:15;;;;;;;5.97;3.00;;;;;;;;;;4939145;29;20027;-68
2023/07/01 07:38:40;;;;;;;9.60;2.83;;;;;;;;;;4938064;29;20032;-68
2023/07/01 07:41:06;;;;;;;5.55;2.40;;;;;;;;;;4944834;28;20035;-68
2023/07/01 07:43:31;;;;;;;7.05;2.78;;;;;;;;;;4940795;29;20024;-69
2023/07/01 07:45:56;;;;;;;9.93;2.70;;;;;;;;;;4941789;29;20036;-68
2023/07/01 07:48:21;;;;;;;8.20;2.63;;;;;;;;;;4940716;29;20110;-68
2023/07/01 07:50:47;;;;;;;9.18;2.63;;;;;;;;;;4954016;28;20502;-68
2023/07/01 07:53:13;;;;;;;5.10;2.05;;;;;;;;;;4937846;29;20041;-68
2023/07/01 07:55:39;;;;;;;6.60;2.20;;;;;;;;;;4938659;29;20039;-68
2023/07/01 07:58:04;;;;;;;8.63;2.30;;;;;;;;;;4938091;29;20031;-69
2023/07/01 08:00:30;;;;;;;6.57;2.80;;;;;;;;;;4947837;29;20023;-68
2023/07/01 08:02:55;;;;;;;8.15;2.50;;;;;;;;;;4936018;29;20079;-68
2023/07/01 08:05:21;;;;;;;6.50;2.13;;;;;;;;;;4938637;29;20027;-68
2023/07/01 08:07:47;;;;;;;6.82;2.25;;;;;;;;;;4951331;29;20031;-67
2023/07/01 08:10:12;;;;;;;7.47;2.30;;;;;;;;;;4934031;29;20043;-68
2023/07/01 08:12:38;;;;;;;7.65;2.38;;;;;;;;;;4934741;29;20408;-67
2023/07/01 08:15:03;;;;;;;4.57;2.40;;;;;;;;;;4931010;28;20421;-67
2023/07/01 08:17:29;;;;;;;4.28;1.60;;;;;;;;;;4930982;29;20036;-68
2023/07/01 08:19:54;;;;;;;5.47;1.88;;;;;;;;;;4928853;28;20081;-68
2023/07/01 08:22:19;;;;;;;3.60;2.05;;;;;;;;;;4938914;29;20036;-68
2023/07/01 08:24:44;;;;;;;5.70;2.05;;;;;;;;;;4937511;29;20072;-68
2023/07/01 08:27:10;;;;;;;7.20;2.10;;;;;;;;;;4941439;29;20472;-67
2023/07/01 08:29:35;;;;;;;4.40;1.70;;;;;;;;;;4938123;29;20031;-68
2023/07/01 08:32:00;;;;;;;6.40;1.80;;;;;;;;;;4936679;29;20543;-67
2023/07/01 08:34:26;;;;;;;3.85;1.60;;;;;;;;;;4938255;29;20091;-69
2023/07/01 08:36:51;;;;;;;3.45;1.48;;;;;;;;;;4938179;29;20055;-68
2023/07/01 08:39:16;;;;;;;4.00;1.90;;;;;;;;;;4936893;29;20031;-68
2023/07/01 08:41:52;;;;;;;6.00;2.03;;;;;;;;;;4937220;29;20031;-67
2023/07/01 08:44:18;;;;;;;5.85;1.75;;;;;;;;;;4938110;29;20028;-68
2023/07/01 08:46:44;;;;;;;4.38;2.10;;;;;;;;;;4937781;29;20027;-68
2023/07/01 08:49:10;;;;;;;6.70;2.08;;;;;;;;;;4938198;29;20078;-67
2023/07/01 08:51:38;;;;;;;8.63;2.72;;;;;;;;;;4937407;29;20540;-68
2023/07/01 08:54:04;;;;;;;6.97;2.20;;;;;;;;;;4937890;29;20031;-67
2023/07/01 08:56:29;;;;;;;10.02;2.50;;;;;;;;;;4936516;29;20038;-68
2023/07/01 08:58:55;;;;;;;5.10;2.40;;;;;;;;;;4937814;29;20027;-68
2023/07/01 09:01:20;;;;;;;8.45;1.80;;;;;;;;;;4937144;29;20110;-68
2023/07/01 09:03:46;;;;;;;3.30;1.15;;;;;;;;;;4937558;29;20553;-68
2023/07/01 09:06:11;;;;;;;3.67;1.60;;;;;;;;;;4937645;29;20030;-68
2023/07/01 09:08:40;;;;;;;3.65;1.50;;;;;;;;;;4937590;29;20024;-68
2023/07/01 09:11:06;;;;;;;3.55;1.38;;;;;;;;;;4936173;29;20111;-69
2023/07/01 09:13:31;;;;;;;2.63;1.40;;;;;;;;;;4937030;29;20106;-68
2023/07/01 09:15:57;;;;;;;7.10;1.35;;;;;;;;;;4937431;29;20031;-68
2023/07/01 09:18:23;;;;;;;3.20;1.58;;;;;;;;;;4937695;29;20032;-69
2023/07/01 09:20:51;;;;;;;3.78;1.50;;;;;;;;;;4937391;29;20023;-68
2023/07/01 09:23:38;;;;;;;5.63;1.63;;;;;;;;;;4936882;29;20507;-68
2023/07/01 09:26:10;;;;;;;3.20;1.58;;;;;;;;;;4936388;29;20034;-68
2023/07/01 09:28:39;;;;;;;4.43;1.90;;;;;;;;;;4936147;29;20028;-68
2023/07/01 09:31:06;;;;;;;4.78;1.88;;;;;;;;;;4937127;29;20389;-68
2023/07/01 09:33:32;;;;;;;3.55;1.58;;;;;;;;;;4937529;29;20436;-68
2023/07/01 09:36:01;;;;;;;4.45;2.05;;;;;;;;;;4937186;29;20110;-67
2023/07/01 09:38:26;;;;;;;6.40;2.08;;;;;;;;;;4934037;29;20094;-67
2023/07/01 09:40:52;;;;;;;3.38;1.80;;;;;;;;;;4929656;29;20027;-68
2023/07/01 09:43:19;;;;;;;5.63;2.40;;;;;;;;;;4936099;29;20178;-68
2023/07/01 09:45:56;;;;;;;6.22;2.17;;;;;;;;;;4932581;29;20047;-67
2023/07/01 09:48:21;;;;;;;5.85;2.47;;;;;;;;;;4934261;29;20101;-67
2023/07/01 09:50:48;;;;;;;5.63;2.08;;;;;;;;;;4932866;29;20048;-67
2023/07/01 09:53:20;;;;;;;5.15;2.40;;;;;;;;;;4933640;29;20039;-68
2023/07/01 09:55:46;;;;;;;5.40;2.35;;;;;;;;;;4925227;28;20497;-67
2023/07/01 09:58:11;;;;;;;3.63;2.00;;;;;;;;;;4932123;29;20035;-68
2023/07/01 10:00:38;;;;;;;3.80;1.70;;;;;;;;;;4931294;29;20032;-68
2023/07/01 10:03:03;;;;;;;4.10;2.08;;;;;;;;;;4933702;29;20056;-67
2023/07/01 10:05:28;;;;;;;3.78;2.17;;;;;;;;;;4936211;29;20171;-68
2023/07/01 10:07:54;;;;;;;5.10;2.00;;;;;;;;;;4933723;29;20031;-68
2023/07/01 10:10:21;;;;;;;4.00;2.03;;;;;;;;;;4927808;28;20051;-68
2023/07/01 10:12:47;;;;;;;6.00;2.13;;;;;;;;;;4931367;29;20520;-67
2023/07/01 10:15:13;;;;;;;4.25;2.00;;;;;;;;;;4933501;29;20043;-67
2023/07/01 10:17:45;;;;;;;5.47;2.38;;;;;;;;;;4937882;29;20030;-67
2023/07/01 10:20:23;;;;;;;4.50;2.00;;;;;;;;;;4936828;29;20067;-68
2023/07/01 10:22:55;;;;;;;5.78;2.20;;;;;;;;;;4935716;29;20369;-67
2023/07/01 10:25:34;;;;;;;3.53;2.00;;;;;;;;;;4939061;29;20023;-67
2023/07/01 10:28:09;;;;;;;6.22;2.10;;;;;;;;;;4936183;29;20472;-68
2023/07/01 10:30:54;;;;;;;3.33;2.05;;;;;;;;;;4935121;29;20106;-68
2023/07/01 10:33:49;;;;;;;4.78;2.50;;;;;;;;;;4913566;29;20579;-67
2023/07/01 10:36:14;;;;;;;3.88;1.95;;;;;;;;;;4904335;29;20048;-67
2023/07/01 10:38:40;;;;;;;4.18;2.30;;;;;;;;;;4909724;29;20047;-67
2023/07/01 10:41:05;;;;;;;4.60;2.05;;;;;;;;;;4914820;29;20055;-68
2023/07/01 10:43:34;;;;;;;4.55;2.60;;;;;;;;;;4912783;29;20102;-67
2023/07/01 10:46:13;;;;;;;4.72;2.50;;;;;;;;;;4912677;29;20485;-67
2023/07/01 10:48:39;;;;;;;4.72;2.42;;;;;;;;;;4911604;29;20435;-67
2023/07/01 10:51:08;;;;;;;4.53;2.85;;;;;;;;;;4914134;29;20036;-67
2023/07/01 10:53:53;;;;;;;4.47;2.70;;;;;;;;;;4913557;29;20388;-67
2023/07/01 10:56:19;;;;;;;4.40;2.80;;;;;;;;;;4912590;29;20038;-67
2023/07/01 10:58:44;;;;;;;5.70;3.00;;;;;;;;;;4913645;29;20469;-67
2023/07/01 11:01:29;;;;;;;4.07;2.80;;;;;;;;;;4912432;29;20028;-67
2023/07/01 11:03:55;;;;;;;5.53;2.90;;;;;;;;;;4914113;29;20052;-67
2023/07/01 11:06:20;;;;;;;3.80;2.60;;;;;;;;;;4910562;29;20079;-68
2023/07/01 11:08:49;;;;;;;4.85;2.90;;;;;;;;;;4914187;29;20032;-68
2023/07/01 11:11:18;;;;;;;6.28;3.22;;;;;;;;;;4931332;29;20103;-67
2023/07/01 11:14:00;;;;;;;5.00;3.00;;;;;;;;;;4933883;29;20106;-67
2023/07/01 11:16:26;;;;;;;4.93;3.47;;;;;;;;;;4933681;29;20024;-67
2023/07/01 11:18:53;;;;;;;4.70;3.97;;;;;;;;;;4935213;29;20461;-67
2023/07/01 11:21:22;;;;;;;5.63;3.85;;;;;;;;;;4932734;29;20123;-67
2023/07/01 11:24:06;;;;;;;5.85;4.00;;;;;;;;;;4934509;29;20026;-67
2023/07/01 11:26:36;;;;;;;4.80;3.10;;;;;;;;;;4929334;29;20362;-67
2023/07/01 11:29:01;;;;;;;4.60;3.40;;;;;;;;;;4930393;29;20030;-67
2023/07/01 11:31:30;;;;;;;6.60;4.28;;;;;;;;;;4933576;29;20114;-67
2023/07/01 11:33:56;;;;;;;6.65;4.70;;;;;;;;;;4935210;29;20019;-68
2023/07/01 11:36:37;;;;;;;5.45;4.75;;;;;;;;;;4933337;29;20035;-67
2023/07/01 11:39:23;;;;;;;5.35;4.25;;;;;;;;;;4931319;29;20028;-68
2023/07/01 11:41:55;;;;;;;6.60;5.15;;;;;;;;;;4933488;29;20031;-68
2023/07/01 11:44:25;;;;;;;6.20;5.03;;;;;;;;;;4933882;29;20420;-68
2023/07/01 11:46:50;;;;;;;6.60;5.68;;;;;;;;;;4934434;29;20024;-68
2023/07/01 11:49:33;;;;;;;6.75;5.75;;;;;;;;;;4936573;29;20083;-68
2023/07/01 11:52:00;;;;;;;7.22;5.40;;;;;;;;;;4941239;29;20055;-68
2023/07/01 11:54:40;;;;;;;8.88;7.00;;;;;;;;;;4938491;29;20051;-68
2023/07/01 11:57:06;;;;;;;8.27;5.82;;;;;;;;;;4942719;29;20115;-69
2023/07/01 11:59:33;;;;;;;7.60;5.85;;;;;;;;;;4935732;29;20095;-68
2023/07/01 12:01:59;;;;;;;8.75;7.18;;;;;;;;;;4937668;29;20107;-68
2023/07/01 12:04:24;;;;;;;7.45;6.53;;;;;;;;;;4944731;29;20106;-68
2023/07/01 12:06:49;;;;;;;7.72;6.50;;;;;;;;;;4938153;29;20032;-68
2023/07/01 12:09:28;;;;;;;8.20;6.28;;;;;;;;;;4936363;29;20033;-68
2023/07/01 12:11:54;;;;;;;7.03;5.80;;;;;;;;;;4938602;29;20445;-68
2023/07/01 12:14:20;;;;;;;6.47;5.65;;;;;;;;;;4938407;29;20024;-68
2023/07/01 12:16:49;;;;;;;10.18;7.32;;;;;;;;;;4936972;29;20024;-68
2023/07/01 12:19:15;;;;;;;12.60;7.57;;;;;;;;;;4929097;29;20024;-68
2023/07/01 12:21:42;;;;;;;7.75;6.82;;;;;;;;;;4932999;29;20428;-68
2023/07/01 12:24:27;;;;;;;9.50;6.78;;;;;;;;;;4936903;29;20469;-68
2023/07/01 12:26:53;;;;;;;8.38;6.38;;;;;;;;;;4937297;29;20023;-68
2023/07/01 12:29:19;;;;;;;7.93;6.57;;;;;;;;;;4937908;29;20028;-68
2023/07/01 12:31:44;;;;;;;7.50;6.25;;;;;;;;;;4935798;29;20028;-68
2023/07/01 12:34:10;;;;;;;7.90;6.88;;;;;;;;;;4937207;29;20028;-68
2023/07/01 12:36:35;;;;;;;8.02;6.28;;;;;;;;;;4937279;29;20039;-68
2023/07/01 12:39:01;;;;;;;8.55;6.95;;;;;;;;;;4936755;29;20020;-68
2023/07/01 12:41:28;;;;;;;8.45;6.93;;;;;;;;;;4935780;29;20357;-67
2023/07/01 12:43:54;;;;;;;8.07;6.00;;;;;;;;;;4937161;29;20054;-68
2023/07/01 12:46:19;;;;;;;8.85;5.90;;;;;;;;;;4936404;29;20023;-68
2023/07/01 12:48:44;;;;;;;6.88;5.72;;;;;;;;;;4936243;29;20023;-67
2023/07/01 12:51:10;;;;;;;6.65;5.30;;;;;;;;;;4936380;29;20023;-68
2023/07/01 12:53:35;;;;;;;6.93;4.93;;;;;;;;;;4937518;29;20019;-67
2023/07/01 12:56:00;;;;;;;5.65;4.80;;;;;;;;;;4937141;29;20400;-69
2023/07/01 12:58:25;;;;;;;7.00;5.50;;;;;;;;;;4937364;29;20035;-68
2023/07/01 13:00:51;;;;;;;7.25;5.30;;;;;;;;;;4935001;29;20019;-68
2023/07/01 13:03:16;;;;;;;7.32;5.13;;;;;;;;;;4937096;29;20099;-67
2023/07/01 13:05:41;;;;;;;4.93;4.18;;;;;;;;;;4935701;29;20027;-68
2023/07/01 13:08:07;;;;;;;6.28;5.07;;;;;;;;;;4937247;29;20110;-68
2023/07/01 13:10:36;;;;;;;5.55;4.47;;;;;;;;;;4936207;29;20065;-69
2023/07/01 13:13:02;;;;;;;5.60;4.38;;;;;;;;;;4936662;29;20030;-68
2023/07/01 13:15:28;;;;;;;5.05;4.13;;;;;;;;;;4934378;29;20024;-68
2023/07/01 13:17:54;;;;;;;3.53;2.50;;;;;;;;;;4934522;29;20035;-67
2023/07/01 13:20:20;;;;;;;6.20;4.18;;;;;;;;;;4936873;29;20032;-68
2023/07/01 13:22:49;;;;;;;5.57;4.60;;;;;;;;;;4935658;29;20151;-68
2023/07/01 13:25:18;;;;;;;5.15;4.40;;;;;;;;;;4934982;29;20062;-68
2023/07/01 13:27:43;;;;;;;6.10;4.18;;;;;;;;;;4935457;28;20027;-69
2023/07/01 13:30:16;;;;;;;5.05;3.83;;;;;;;;;;4934968;29;20031;-68
2023/07/01 13:32:41;;;;;;;5.22;3.63;;;;;;;;;;4925317;29;20039;-69
2023/07/01 13:35:06;;;;;;;5.20;3.63;;;;;;;;;;4936529;29;20059;-69
2023/07/01 13:37:32;;;;;;;4.95;3.90;;;;;;;;;;4931195;29;20027;-68
2023/07/01 13:39:58;;;;;;;5.30;4.25;;;;;;;;;;4934570;29;20032;-69
2023/07/01 13:42:24;;;;;;;4.82;3.55;;;;;;;;;;4931440;29;20429;-69
2023/07/01 13:44:53;;;;;;;5.43;3.85;;;;;;;;;;4936332;29;20380;-69
2023/07/01 13:47:25;;;;;;;4.82;3.60;;;;;;;;;;4937310;29;20063;-68
2023/07/01 13:49:51;;;;;;;4.38;3.28;;;;;;;;;;4938030;29;20047;-69
2023/07/01 13:52:16;;;;;;;4.32;2.75;;;;;;;;;;4933203;29;20769;-69
2023/07/01 13:54:41;;;;;;;5.07;3.03;;;;;;;;;;4936338;29;20029;-69
2023/07/01 13:57:13;;;;;;;4.22;2.95;;;;;;;;;;4944245;29;20031;-69
2023/07/01 13:59:39;;;;;;;4.95;3.10;;;;;;;;;;4950537;28;20520;-69
2023/07/01 14:02:05;;;;;;;4.75;3.08;;;;;;;;;;4939564;29;20103;-69
2023/07/01 14:04:31;;;;;;;4.80;3.40;;;;;;;;;;4932669;29;20381;-69
2023/07/01 14:06:57;;;;;;;6.63;3.60;;;;;;;;;;4937220;29;20038;-68
2023/07/01 14:09:24;;;;;;;4.95;3.22;;;;;;;;;;4935206;29;20409;-69
2023/07/01 14:11:49;;;;;;;5.55;3.70;;;;;;;;;;4935427;29;20023;-69
2023/07/01 14:14:19;;;;;;;4.90;3.28;;;;;;;;;;4935551;29;20034;-68
2023/07/01 14:16:44;;;;;;;5.35;3.88;;;;;;;;;;4932984;29;20054;-69
2023/07/01 14:19:12;;;;;;;7.07;4.28;;;;;;;;;;4934701;29;20031;-69
2023/07/01 14:21:38;;;;;;;6.00;3.67;;;;;;;;;;4934995;29;20043;-69
2023/07/01 14:24:06;;;;;;;6.22;3.60;;;;;;;;;;4940110;28;20048;-68
2023/07/01 14:26:39;;;;;;;5.50;3.70;;;;;;;;;;4934664;29;20027;-68
2023/07/01 14:29:04;;;;;;;4.65;3.25;;;;;;;;;;4931440;29;20495;-69
2023/07/01 14:31:31;;;;;;;5.90;3.83;;;;;;;;;;4934949;29;20024;-69
2023/07/01 14:33:57;;;;;;;7.38;4.03;;;;;;;;;;4927933;29;20035;-69
2023/07/01 14:36:30;;;;;;;6.82;4.50;;;;;;;;;;4926446;28;20156;-69
2023/07/01 14:38:56;;;;;;;6.35;4.40;;;;;;;;;;4936094;29;20036;-69
2023/07/01 14:41:28;;;;;;;6.93;4.28;;;;;;;;;;4927591;29;20024;-69